Edmonton International Airport
CYEG : now visible

Airfield :











YOU CAN JOIN US ON...

 
LOGIN :

Register | Disclaimer

   EN    FR    IT 

 









Legend :    VFR   Marginal VFR   IFR   Intensive IFR   Very Intensive IFR
Visi :
Ceiling :
>= 8 km
>= 3000ft
5 to 8 km
1000 to 3000 ft
1500m to 5 km
500 to 1000 ft
800 to 1500m
200 to 500 ft
< 800m
< 200 ft
Symbols :   Thunderstorms  Fog  Heavy snow  Heavy precipitations  Wind > 20 kt






- Airport Elevation : 2373 ft
- IATA code : YEG


CYEG - Edmonton International

CURRENT METAR :
  • 230643Z 34015KT 3SM -SN DRSN BKN030 OVC070 M08/M10 A2992 RMK SC5AC3 SLP180

EXPIRED METARs :
  • 230620Z 34013KT 2 1/2SM -SN SCT025 OVC070 M07/M10 A2992 RMK SC3AC5 SLP179
  • 230600Z 33013G20KT 15SM -SN FEW030 BKN070 OVC110 M07/M11 A2992 RMK SC2AC3AC3 SLP178
  • 230500Z 32011G17KT 15SM -SN FEW035 SCT065 OVC110 M07/M10 A2992 RMK SC1SC2AC5 MOON VISBL SLP177
  • 230400Z 31013G19KT 20SM -SN FEW035 OVC110 M06/M11 A2991 RMK SC2AC6 MOON VISBL SLP173

TAF AMD TAF CYEG
Valid from the 23 at 06:00 until the 24 at 06:00 UTC


230634Z 2306/2406 34010G20KT P6SM SCT020 OVC080
TEMPO 2306/2315 2SM -SHSN SCT008 BKN020 OVC080
FM231500 06008KT P6SM SCT020 OVC050
TEMPO 2315/2318 5SM -SHSN BKN020 OVC050
FM231800 08008KT P6SM FEW015 BKN040
FM240200 13010KT P6SM SCT020 BKN040
TEMPO 2402/2406 P6SM -SN BKN020 OVC040 RMK NXT FCST BY 230900Z
CZEG FIR / North America



MET'MAP, your aeronautical weather chart ! - Copyright ORBIFLY December 2007 - Disclaimer

ORBIFLY MET'MAP TEAM :

Programming & Development : Alexandra Zaïnal
Concept & original design : Baudouin d'Aumeries
Assistance for programming : Marc-Olivier Méhu
Technical & hardware support : Manuel Goepfert

Contact : metmap@orbifly.com




SOURCES & CREDITS :

   NOAA       Earth
Advisory